createdAt,value
2019-01-13T00:01:47.261Z,1.10
2019-01-13T00:04:16.473Z,1.20
2019-01-13T00:06:45.628Z,0.97
2019-01-13T00:09:14.220Z,1.23
2019-01-13T00:11:42.231Z,1.00
2019-01-13T00:14:11.315Z,1.00
2019-01-13T00:16:42.666Z,1.00
2019-01-13T00:19:10.779Z,1.20
2019-01-13T00:21:38.757Z,1.10
2019-01-13T00:24:08.765Z,0.90
2019-01-13T00:26:36.747Z,1.10
2019-01-13T00:29:05.213Z,1.10
2019-01-13T00:31:34.541Z,1.00
2019-01-13T00:34:03.822Z,0.80
2019-01-13T00:36:33.567Z,0.90
2019-01-13T00:39:02.445Z,0.80
2019-01-13T00:41:30.512Z,0.83
2019-01-13T00:43:58.894Z,0.93
2019-01-13T00:46:27.194Z,0.80
2019-01-13T00:48:55.549Z,1.17
2019-01-13T00:51:25.379Z,0.70
2019-01-13T00:53:53.641Z,0.90
2019-01-13T00:56:21.792Z,0.90
2019-01-13T00:58:50.108Z,0.90
2019-01-13T01:01:18.414Z,0.77
2019-01-13T01:03:46.825Z,0.73
2019-01-13T01:06:17.247Z,0.70
2019-01-13T01:08:45.829Z,0.67
2019-01-13T01:11:13.925Z,0.70
2019-01-13T01:13:42.735Z,0.70
2019-01-13T01:16:13.047Z,0.70
2019-01-13T01:18:41.911Z,0.73
2019-01-13T01:21:09.999Z,0.80
2019-01-13T01:23:38.271Z,1.00
2019-01-13T01:26:06.277Z,0.60
2019-01-13T01:28:34.161Z,0.83
2019-01-13T01:31:02.689Z,0.80
2019-01-13T01:33:30.304Z,0.90
2019-01-13T01:35:59.337Z,0.80
2019-01-13T01:38:27.764Z,0.80
2019-01-13T01:40:55.840Z,0.93
2019-01-13T01:43:23.833Z,1.00
2019-01-13T01:45:52.057Z,0.90
2019-01-13T01:48:19.821Z,1.00
2019-01-13T01:50:48.151Z,0.90
2019-01-13T01:53:16.769Z,1.10
2019-01-13T01:55:44.788Z,0.90
2019-01-13T01:58:12.423Z,1.00
2019-01-13T02:00:40.854Z,0.90
2019-01-13T02:03:08.914Z,0.80
2019-01-13T02:05:36.802Z,0.90
2019-01-13T02:08:05.323Z,0.90
2019-01-13T02:10:33.414Z,0.80
2019-01-13T02:13:01.260Z,1.07
2019-01-13T02:15:29.705Z,1.03
2019-01-13T02:17:57.945Z,1.00
2019-01-13T02:20:28.121Z,1.00
2019-01-13T02:22:58.066Z,1.10
2019-01-13T02:25:29.738Z,1.00
2019-01-13T02:27:57.575Z,1.00
2019-01-13T02:30:27.258Z,1.20
2019-01-13T02:32:55.502Z,1.17
2019-01-13T02:35:23.658Z,1.23
2019-01-13T02:37:52.180Z,1.23
2019-01-13T02:40:20.954Z,1.23
2019-01-13T02:42:48.841Z,1.10
2019-01-13T02:45:19.786Z,1.07
2019-01-13T02:47:47.557Z,1.10
2019-01-13T02:50:15.575Z,1.10
2019-01-13T02:52:43.746Z,1.13
2019-01-13T02:55:12.096Z,0.90
2019-01-13T02:57:40.109Z,1.27
2019-01-13T03:00:14.454Z,1.13
2019-01-13T03:02:42.284Z,1.10
2019-01-13T03:05:14.078Z,1.00
2019-01-13T03:07:42.038Z,1.40
2019-01-13T03:10:16.149Z,0.90
2019-01-13T03:12:44.176Z,1.20
2019-01-13T03:15:19.509Z,1.40
2019-01-13T03:17:45.108Z,0.90
2019-01-13T03:20:13.061Z,1.10
2019-01-13T03:22:41.009Z,1.13
2019-01-13T03:25:12.166Z,1.10
2019-01-13T03:27:40.060Z,1.00
2019-01-13T03:30:10.802Z,1.00
2019-01-13T03:32:39.087Z,1.10
2019-01-13T03:35:07.860Z,1.10
2019-01-13T03:37:35.606Z,1.23
2019-01-13T03:40:06.396Z,1.47
2019-01-13T03:42:34.106Z,0.97
2019-01-13T03:45:04.878Z,1.40
2019-01-13T03:47:34.016Z,1.30
2019-01-13T03:50:03.121Z,1.50
2019-01-13T03:52:32.522Z,1.23
2019-01-13T03:55:00.550Z,1.50
2019-01-13T03:57:28.318Z,0.90
2019-01-13T03:59:56.210Z,1.20
2019-01-13T04:02:25.411Z,1.07
2019-01-13T04:04:53.039Z,1.00
2019-01-13T04:07:21.376Z,1.10
2019-01-13T04:09:48.985Z,1.33
2019-01-13T04:12:16.822Z,1.33
2019-01-13T04:14:44.891Z,1.00
2019-01-13T04:17:12.897Z,1.03
2019-01-13T04:19:40.879Z,1.30
2019-01-13T04:22:09.296Z,1.07
2019-01-13T04:24:36.941Z,1.00
2019-01-13T04:27:04.807Z,1.10
2019-01-13T04:29:32.709Z,0.80
2019-01-13T04:32:00.351Z,1.03
2019-01-13T04:34:31.511Z,1.00
2019-01-13T04:36:59.443Z,1.00
2019-01-13T04:39:27.097Z,1.03
2019-01-13T04:41:55.412Z,0.83
2019-01-13T04:44:24.325Z,1.00
2019-01-13T04:46:51.940Z,1.10
2019-01-13T04:49:19.542Z,1.07
2019-01-13T04:51:47.449Z,1.00
2019-01-13T04:54:15.226Z,0.90
2019-01-13T04:56:43.214Z,0.93
2019-01-13T04:59:11.448Z,0.90
2019-01-13T05:01:39.114Z,1.00
2019-01-13T05:04:06.727Z,1.07
2019-01-13T05:06:34.794Z,1.00
2019-01-13T05:09:04.019Z,1.30
2019-01-13T05:11:31.651Z,0.93
2019-01-13T05:13:59.819Z,0.90
2019-01-13T05:16:27.741Z,1.00
2019-01-13T05:18:55.420Z,0.80
2019-01-13T05:21:23.443Z,1.03
2019-01-13T05:23:51.073Z,1.00
2019-01-13T05:26:19.682Z,1.00
2019-01-13T05:28:47.853Z,1.13
2019-01-13T05:31:16.104Z,1.00
2019-01-13T05:33:43.739Z,1.03
2019-01-13T05:36:11.909Z,1.00
2019-01-13T05:38:39.679Z,0.90
2019-01-13T05:41:09.418Z,1.00
2019-01-13T05:43:39.135Z,1.10
2019-01-13T05:46:08.441Z,1.00
2019-01-13T05:48:36.293Z,1.20
2019-01-13T05:51:04.465Z,1.13
2019-01-13T05:53:32.256Z,1.30
2019-01-13T05:55:59.990Z,1.20
2019-01-13T05:58:28.228Z,1.40
2019-01-13T06:00:56.281Z,1.17
2019-01-13T06:03:24.367Z,1.10
2019-01-13T06:05:52.310Z,1.30
2019-01-13T06:08:20.519Z,1.50
2019-01-13T06:10:48.924Z,1.33
2019-01-13T06:13:19.903Z,1.30
2019-01-13T06:16:16.725Z,1.20
2019-01-13T06:18:44.877Z,1.30
2019-01-13T06:21:12.767Z,1.27
2019-01-13T06:23:40.784Z,1.00
2019-01-13T06:26:08.945Z,1.40
2019-01-13T06:28:36.980Z,1.17
2019-01-13T06:31:04.667Z,1.07
2019-01-13T06:33:35.463Z,1.10
2019-01-13T06:36:03.754Z,1.00
2019-01-13T06:38:31.633Z,1.10
2019-01-13T06:41:00.750Z,1.07
2019-01-13T06:43:28.479Z,1.00
2019-01-13T06:45:59.112Z,1.17
2019-01-13T06:48:26.777Z,1.47
2019-01-13T06:50:54.516Z,1.20
2019-01-13T06:53:23.602Z,1.23
2019-01-13T06:55:51.512Z,1.20
2019-01-13T06:58:19.255Z,1.30
2019-01-13T07:00:46.878Z,1.40
2019-01-13T07:03:14.447Z,1.73
2019-01-13T07:05:42.324Z,1.20
2019-01-13T07:08:10.160Z,1.20
2019-01-13T07:10:38.603Z,1.60
2019-01-13T07:13:06.244Z,1.40
2019-01-13T07:15:33.864Z,1.47
2019-01-13T07:18:02.237Z,1.60
2019-01-13T07:20:29.912Z,1.77
2019-01-13T07:22:58.256Z,1.70
2019-01-13T07:25:25.906Z,1.97
2019-01-13T07:27:53.870Z,1.60
2019-01-13T07:30:23.942Z,1.73
2019-01-13T07:32:51.684Z,2.13
2019-01-13T07:35:19.830Z,2.00
2019-01-13T07:37:48.143Z,1.77
2019-01-13T07:40:21.154Z,1.40
2019-01-13T07:42:49.328Z,2.00
2019-01-13T07:45:20.121Z,2.20
2019-01-13T07:47:47.807Z,1.80
2019-01-13T07:50:16.833Z,1.73
2019-01-13T07:52:45.760Z,2.00
2019-01-13T07:55:20.144Z,2.00
2019-01-13T07:57:48.304Z,2.40
2019-01-13T08:00:19.550Z,2.43
2019-01-13T08:02:47.446Z,2.10
2019-01-13T08:05:15.664Z,2.20
2019-01-13T08:07:43.992Z,2.20
2019-01-13T08:10:13.991Z,2.10
2019-01-13T08:12:42.975Z,2.00
2019-01-13T08:15:13.733Z,2.00
2019-01-13T08:17:41.629Z,1.90
2019-01-13T08:20:14.220Z,1.67
2019-01-13T08:22:42.807Z,1.57
2019-01-13T08:25:11.030Z,1.30
2019-01-13T08:27:39.426Z,1.60
2019-01-13T08:30:13.817Z,1.40
2019-01-13T08:32:41.928Z,1.50
2019-01-13T08:35:10.814Z,1.27
2019-01-13T08:37:39.523Z,1.87
2019-01-13T08:40:10.564Z,1.40
2019-01-13T08:42:38.543Z,1.67
2019-01-13T08:45:07.629Z,1.60
2019-01-13T08:47:36.189Z,2.00
2019-01-13T08:50:12.638Z,1.90
2019-01-13T08:52:46.466Z,1.97
2019-01-13T08:55:18.803Z,1.80
2019-01-13T08:57:50.391Z,1.60
2019-01-13T09:00:23.405Z,1.80
2019-01-13T09:02:54.882Z,1.93
2019-01-13T09:05:24.501Z,1.77
2019-01-13T09:07:53.115Z,1.80
2019-01-13T09:10:21.366Z,2.20
2019-01-13T09:12:56.931Z,1.87
2019-01-13T09:15:29.283Z,1.50
2019-01-13T09:17:57.281Z,1.60
2019-01-13T09:20:33.823Z,1.60
2019-01-13T09:23:07.568Z,1.70
2019-01-13T09:25:40.376Z,1.93
2019-01-13T09:28:09.521Z,1.83
2019-01-13T09:30:40.630Z,1.40
2019-01-13T09:33:09.352Z,1.40
2019-01-13T09:35:39.472Z,1.37
2019-01-13T09:38:11.982Z,1.07
2019-01-13T09:40:48.138Z,1.17
2019-01-13T09:43:17.765Z,1.20
2019-01-13T09:45:46.872Z,1.00
2019-01-13T09:48:17.212Z,1.10
2019-01-13T09:50:45.462Z,0.93
2019-01-13T09:53:14.051Z,0.90
2019-01-13T09:55:41.976Z,0.80
2019-01-13T09:58:13.665Z,0.70
2019-01-13T10:00:42.568Z,0.73
2019-01-13T10:03:11.565Z,0.70
2019-01-13T10:05:42.216Z,0.80
2019-01-13T10:08:14.481Z,0.80
2019-01-13T10:10:43.871Z,0.83
2019-01-13T10:13:11.941Z,0.70
2019-01-13T10:15:45.675Z,1.10
2019-01-13T10:18:14.151Z,0.90
2019-01-13T10:20:46.626Z,1.20
2019-01-13T10:23:14.847Z,1.10
2019-01-13T10:25:45.407Z,0.77
2019-01-13T10:28:14.724Z,0.87
2019-01-13T10:30:49.401Z,0.80
2019-01-13T10:33:17.290Z,0.80
2019-01-13T10:35:46.439Z,1.10
2019-01-13T10:38:15.699Z,0.73
2019-01-13T10:40:44.437Z,0.80
2019-01-13T10:43:12.977Z,0.90
2019-01-13T10:45:40.657Z,1.03
2019-01-13T10:48:08.519Z,0.90
2019-01-13T10:50:37.629Z,1.20
2019-01-13T10:53:07.610Z,0.73
2019-01-13T10:55:35.657Z,0.80
2019-01-13T10:58:04.537Z,0.70
2019-01-13T11:00:35.177Z,0.70
2019-01-13T11:03:05.802Z,0.60
2019-01-13T11:05:34.486Z,0.60
2019-01-13T11:08:11.096Z,0.77
2019-01-13T11:10:34.539Z,0.60
2019-01-13T11:13:05.386Z,0.80
2019-01-13T11:15:33.392Z,0.70
2019-01-13T11:18:01.542Z,0.60
2019-01-13T11:20:32.492Z,0.70
2019-01-13T11:23:00.513Z,0.60
2019-01-13T11:25:34.775Z,0.60
2019-01-13T11:28:03.914Z,0.70
2019-01-13T11:30:32.663Z,0.70
2019-01-13T11:33:00.715Z,0.70
2019-01-13T11:35:29.212Z,0.90
2019-01-13T11:37:57.103Z,0.60
2019-01-13T11:40:26.348Z,0.63
2019-01-13T11:42:54.706Z,0.70
2019-01-13T11:45:23.295Z,0.70
2019-01-13T11:47:51.247Z,0.70
2019-01-13T11:50:20.991Z,0.70
2019-01-13T11:52:49.869Z,0.80
2019-01-13T11:55:18.299Z,0.60
2019-01-13T11:57:46.209Z,0.93
2019-01-13T12:00:19.709Z,0.60
2019-01-13T12:02:48.025Z,0.80
2019-01-13T12:05:17.290Z,0.70
2019-01-13T12:07:46.720Z,0.80
2019-01-13T12:10:17.545Z,1.00
2019-01-13T12:12:46.446Z,0.70
2019-01-13T12:15:16.041Z,0.80
2019-01-13T12:17:47.098Z,0.83
2019-01-13T12:20:19.602Z,0.80
2019-01-13T12:22:47.883Z,0.73
2019-01-13T12:25:16.625Z,0.80
2019-01-13T12:27:44.558Z,0.80
2019-01-13T12:30:19.112Z,0.73
2019-01-13T12:32:52.047Z,0.87
2019-01-13T12:35:21.859Z,0.70
2019-01-13T12:37:50.124Z,0.70
2019-01-13T12:40:19.849Z,0.67
2019-01-13T12:42:51.509Z,0.70
2019-01-13T12:45:23.385Z,0.80
2019-01-13T12:47:51.424Z,0.70
2019-01-13T12:50:24.645Z,0.60
2019-01-13T12:52:52.866Z,0.90
2019-01-13T12:55:23.707Z,0.87
2019-01-13T12:57:51.466Z,1.00
2019-01-13T13:00:20.296Z,0.80
2019-01-13T13:02:48.000Z,0.90
2019-01-13T13:05:16.909Z,0.80
2019-01-13T13:07:50.461Z,0.80
2019-01-13T13:10:24.630Z,0.80
2019-01-13T13:12:55.875Z,0.70
2019-01-13T13:15:24.136Z,0.80
2019-01-13T13:17:52.161Z,0.90
2019-01-13T13:20:20.180Z,0.90
2019-01-13T13:22:49.903Z,0.90
2019-01-13T13:25:18.051Z,0.90
2019-01-13T13:27:46.579Z,1.00
2019-01-13T13:30:17.550Z,0.90
2019-01-13T13:32:46.022Z,0.90
2019-01-13T13:35:13.980Z,0.73
2019-01-13T13:37:42.313Z,0.87
2019-01-13T13:40:11.480Z,0.73
2019-01-13T13:42:39.235Z,0.90
2019-01-13T13:45:08.411Z,0.90
2019-01-13T13:47:36.817Z,0.80
2019-01-13T13:50:09.663Z,0.53
2019-01-13T13:52:37.993Z,0.70
2019-01-13T13:55:08.002Z,0.73
2019-01-13T13:57:37.843Z,0.60
2019-01-13T14:00:19.028Z,0.70
2019-01-13T14:02:47.731Z,0.93
2019-01-13T14:05:16.280Z,0.60
2019-01-13T14:07:48.657Z,0.80
2019-01-13T14:10:21.004Z,0.60
2019-01-13T14:12:48.749Z,0.80
2019-01-13T14:15:16.901Z,0.60
2019-01-13T14:17:44.899Z,0.70
2019-01-13T14:20:15.008Z,0.80
2019-01-13T14:22:45.340Z,1.20
2019-01-13T14:25:13.325Z,1.00
2019-01-13T14:27:42.968Z,0.70
2019-01-13T14:30:17.835Z,0.80
2019-01-13T14:32:48.408Z,1.20
2019-01-13T14:35:42.523Z,0.70
2019-01-13T14:38:11.463Z,1.50
2019-01-13T14:40:44.929Z,1.30
2019-01-13T14:43:16.287Z,1.30
2019-01-13T14:45:44.887Z,0.80
2019-01-13T14:48:15.533Z,0.87
2019-01-13T14:50:43.323Z,0.83
2019-01-13T14:53:11.603Z,0.90
2019-01-13T14:55:40.336Z,1.00
2019-01-13T14:58:08.996Z,0.90
2019-01-13T15:00:36.922Z,0.87
2019-01-13T15:03:08.261Z,0.83
2019-01-13T15:05:36.207Z,0.80
2019-01-13T15:08:04.156Z,1.20
2019-01-13T15:10:40.905Z,1.10
2019-01-13T15:13:08.845Z,1.03
2019-01-13T15:15:38.336Z,0.80
2019-01-13T15:18:06.690Z,1.50
2019-01-13T15:20:35.907Z,3.50
2019-01-13T15:23:06.185Z,1.60
2019-01-13T15:25:35.514Z,0.90
2019-01-13T15:28:09.638Z,1.20
2019-01-13T15:30:40.138Z,0.90
2019-01-13T15:33:09.213Z,0.80
2019-01-13T15:35:37.763Z,1.00
2019-01-13T15:38:09.089Z,0.90
2019-01-13T15:40:37.315Z,0.70
2019-01-13T15:43:06.116Z,0.80
2019-01-13T15:45:35.452Z,1.00
2019-01-13T15:48:03.638Z,0.87
2019-01-13T15:50:33.263Z,0.90
2019-01-13T15:53:05.785Z,1.10
2019-01-13T15:55:34.325Z,0.80
2019-01-13T15:58:12.464Z,0.90
2019-01-13T16:00:40.719Z,1.10
2019-01-13T16:03:11.714Z,1.07
2019-01-13T16:05:42.807Z,1.23
2019-01-13T16:08:13.013Z,0.60
2019-01-13T16:10:42.175Z,0.90
2019-01-13T16:13:10.897Z,0.90
2019-01-13T16:15:39.820Z,0.90
2019-01-13T16:18:15.494Z,0.90
2019-01-13T16:20:44.451Z,0.80
2019-01-13T16:23:14.800Z,0.70
2019-01-13T16:25:43.875Z,0.70
2019-01-13T16:28:15.413Z,0.90
2019-01-13T16:30:44.875Z,0.80
2019-01-13T16:33:13.037Z,0.80
2019-01-13T16:35:43.351Z,0.80
2019-01-13T16:38:13.904Z,0.80
2019-01-13T16:40:43.788Z,0.93
2019-01-13T16:43:14.317Z,1.13
2019-01-13T16:45:43.462Z,1.00
2019-01-13T16:48:15.767Z,0.70
2019-01-13T16:50:48.025Z,0.90
2019-01-13T16:53:26.826Z,0.90
2019-01-13T16:55:55.988Z,0.80
2019-01-13T16:58:26.247Z,0.80
2019-01-13T17:00:59.417Z,0.70
2019-01-13T17:03:28.527Z,0.80
2019-01-13T17:05:59.060Z,0.60
2019-01-13T17:08:28.903Z,0.80
2019-01-13T17:10:58.803Z,0.80
2019-01-13T17:13:27.838Z,0.73
2019-01-13T17:15:56.189Z,0.70
2019-01-13T17:18:25.145Z,0.70
2019-01-13T17:20:58.414Z,0.80
2019-01-13T17:23:26.396Z,0.80
2019-01-13T17:25:56.538Z,0.93
2019-01-13T17:28:25.229Z,0.90
2019-01-13T17:30:53.180Z,0.73
2019-01-13T17:33:21.960Z,0.70
2019-01-13T17:35:52.068Z,0.90
2019-01-13T17:38:23.304Z,0.87
2019-01-13T17:40:54.243Z,0.80
2019-01-13T17:43:22.235Z,0.70
2019-01-13T17:45:50.394Z,0.90
2019-01-13T17:48:20.711Z,0.70
2019-01-13T17:50:50.662Z,1.00
2019-01-13T17:53:19.269Z,0.80
2019-01-13T17:55:53.240Z,1.00
2019-01-13T17:58:29.793Z,0.73
2019-01-13T18:01:36.562Z,0.90
2019-01-13T18:04:11.058Z,1.00
2019-01-13T18:06:40.603Z,0.70
2019-01-13T18:09:22.058Z,0.70
2019-01-13T18:11:53.755Z,0.70
2019-01-13T18:14:22.192Z,0.77
2019-01-13T18:16:55.601Z,0.70
2019-01-13T18:19:24.279Z,0.80
2019-01-13T18:21:52.311Z,0.77
2019-01-13T18:24:21.122Z,0.90
2019-01-13T18:26:52.357Z,0.73
2019-01-13T18:29:21.570Z,0.80
2019-01-13T18:31:49.619Z,0.80
2019-01-13T18:34:18.634Z,0.87
2019-01-13T18:36:46.614Z,0.80
2019-01-13T18:39:17.073Z,0.90
2019-01-13T18:41:45.679Z,0.63
2019-01-13T18:44:13.802Z,0.90
2019-01-13T18:46:41.938Z,0.83
2019-01-13T18:49:10.666Z,0.70
2019-01-13T18:51:38.353Z,0.80
2019-01-13T18:54:06.273Z,0.70
2019-01-13T18:56:34.450Z,0.80
2019-01-13T18:59:03.962Z,1.10
2019-01-13T19:01:32.382Z,0.97
2019-01-13T19:04:01.995Z,0.90
2019-01-13T19:06:30.915Z,0.80
2019-01-13T19:08:59.069Z,0.90
2019-01-13T19:11:33.236Z,0.97
2019-01-13T19:14:27.814Z,0.90
2019-01-13T19:17:23.551Z,1.13
2019-01-13T19:20:24.321Z,0.90
2019-01-13T19:22:57.286Z,0.80
2019-01-13T19:25:31.222Z,1.40
2019-01-13T19:27:59.305Z,3.40
2019-01-13T19:30:27.717Z,1.17
2019-01-13T19:32:56.120Z,1.00
2019-01-13T19:35:24.262Z,0.83
2019-01-13T19:37:52.412Z,0.70
2019-01-13T19:40:20.899Z,1.00
2019-01-13T19:42:50.277Z,0.80
2019-01-13T19:45:20.084Z,0.80
2019-01-13T19:47:49.561Z,0.90
2019-01-13T19:50:27.063Z,0.60
2019-01-13T19:53:00.502Z,0.80
2019-01-13T19:55:29.985Z,0.97
2019-01-13T19:58:03.366Z,0.80
2019-01-13T20:00:35.636Z,0.90
2019-01-13T20:03:06.468Z,0.80
2019-01-13T20:05:37.294Z,0.90
2019-01-13T20:08:06.756Z,1.10
2019-01-13T20:10:35.090Z,1.30
2019-01-13T20:13:04.273Z,1.20
2019-01-13T20:15:33.381Z,1.03
2019-01-13T20:18:01.680Z,1.50
2019-01-13T20:20:30.735Z,0.97
2019-01-13T20:23:02.350Z,0.90
2019-01-13T20:25:30.779Z,1.13
2019-01-13T20:27:58.865Z,1.20
2019-01-13T20:30:32.436Z,1.63
2019-01-13T20:33:02.307Z,1.23
2019-01-13T20:35:31.513Z,1.30
2019-01-13T20:37:59.512Z,1.27
2019-01-13T20:40:27.265Z,1.47
2019-01-13T20:42:55.298Z,1.80
2019-01-13T20:45:29.648Z,1.20
2019-01-13T20:47:57.864Z,1.37
2019-01-13T20:50:28.507Z,1.60
2019-01-13T20:52:57.983Z,1.47
2019-01-13T20:55:26.104Z,1.30
2019-01-13T20:57:56.692Z,1.67
2019-01-13T21:00:25.706Z,1.17
2019-01-13T21:02:54.249Z,1.40
2019-01-13T21:05:26.551Z,1.30
2019-01-13T21:07:52.688Z,1.60
2019-01-13T21:10:20.914Z,1.10
2019-01-13T21:12:48.896Z,1.10
2019-01-13T21:15:22.633Z,1.47
2019-01-13T21:17:57.382Z,1.53
2019-01-13T21:20:21.521Z,1.33
2019-01-13T21:22:49.522Z,1.40
2019-01-13T21:25:20.928Z,1.07
2019-01-13T21:27:48.863Z,1.23
2019-01-13T21:30:19.382Z,1.60
2019-01-13T21:32:47.211Z,1.60
2019-01-13T21:35:16.102Z,1.10
2019-01-13T21:37:43.863Z,1.37
2019-01-13T21:40:12.515Z,1.37
2019-01-13T21:42:40.335Z,1.43
2019-01-13T21:45:10.833Z,1.67
2019-01-13T21:47:38.911Z,1.50
2019-01-13T21:50:08.934Z,1.60
2019-01-13T21:52:36.750Z,1.60
2019-01-13T21:55:05.984Z,1.50
2019-01-13T21:57:33.639Z,1.37
2019-01-13T22:00:09.743Z,1.57
2019-01-13T22:02:37.513Z,2.20
2019-01-13T22:05:06.810Z,1.47
2019-01-13T22:07:34.784Z,1.23
2019-01-13T22:10:03.571Z,1.93
2019-01-13T22:12:31.616Z,1.77
2019-01-13T22:14:59.739Z,1.20
2019-01-13T22:17:27.678Z,1.30
2019-01-13T22:19:55.838Z,1.30
2019-01-13T22:22:23.803Z,1.20
2019-01-13T22:24:51.499Z,1.30
2019-01-13T22:27:21.347Z,1.60
2019-01-13T22:29:49.062Z,1.13
2019-01-13T22:32:16.730Z,1.90
2019-01-13T22:34:44.665Z,1.13
2019-01-13T22:37:13.092Z,2.10
2019-01-13T22:39:40.994Z,1.40
2019-01-13T22:42:09.050Z,1.10
2019-01-13T22:44:36.718Z,1.20
2019-01-13T22:47:04.654Z,1.00
2019-01-13T22:49:32.777Z,1.00
2019-01-13T22:52:00.540Z,0.90
2019-01-13T22:54:28.441Z,0.97
2019-01-13T22:56:57.554Z,0.70
2019-01-13T22:59:25.315Z,0.97
2019-01-13T23:01:53.706Z,1.00
2019-01-13T23:04:21.921Z,1.30
2019-01-13T23:06:49.894Z,0.80
2019-01-13T23:09:17.545Z,1.10
2019-01-13T23:11:45.464Z,1.23
2019-01-13T23:14:13.460Z,0.90
2019-01-13T23:16:41.510Z,1.10
2019-01-13T23:19:10.517Z,1.10
2019-01-13T23:21:38.403Z,1.23
2019-01-13T23:24:06.242Z,0.97
2019-01-13T23:26:34.337Z,1.20
2019-01-13T23:29:02.408Z,1.20
2019-01-13T23:31:30.241Z,1.10
2019-01-13T23:33:58.175Z,1.00
2019-01-13T23:36:26.313Z,1.13
2019-01-13T23:38:54.141Z,1.20
2019-01-13T23:41:22.242Z,1.10
2019-01-13T23:43:49.905Z,1.53
2019-01-13T23:46:17.823Z,1.33
2019-01-13T23:48:45.530Z,1.10
2019-01-13T23:51:14.608Z,1.33
2019-01-13T23:53:42.375Z,1.20
2019-01-13T23:56:10.163Z,1.03
2019-01-13T23:58:38.134Z,1.50
